20 minutes ago
METAR EHMG 031355Z AUTO 01005KT 9999 FEW023 16/09 Q1015

METAR definition | Embed

METAR L9-FF-1

This field is located in The Netherlands.

This report was made for L9-FF-1 on August 3, 2021 3:55 pm, local time.

Airport observations

The wind is from direction north (010°) with a speed of 5 kt.

Visibility is 6¼ mi or more.

There are few clouds at an altitude of 2,300 ft. No ceiling has been observed.

The temperature and wind chill are 61 °F. The dew point is 48 °F, the relative humidity is 63%. The air pressure at sea level is 29.97 inHg (QNH).

Daylight period

Today the sun rises at 5:59 am and sets at 9:33 pm. This applies to L9-FF-1, the universal daylight period may be different. The difference between the local time and UTC is +2 hour. Daylight saving time is currently in progress.

Historical data

Donate

Will you help us to keep Metar-Taf.com running?
Your contribution helps further development of the site and to pay for the expenses.

No more ads

Are you donating $ 5 or more? Then we'll never show you ads again, as a token of our eternal gratitude!
Log in before you donate

Do you want the flying weather of L9-FF-1 on your website? Read more   Free!